sensor_id;sensor_type;location;lat;lon;timestamp;temperature;humidity
10175;DHT22;18221;38.704;0.152;2023-06-04T00:12:18;18.80;99.90
10175;DHT22;18221;38.704;0.152;2023-06-04T00:14:46;18.70;99.90
10175;DHT22;18221;38.704;0.152;2023-06-04T00:17:14;18.70;99.90
10175;DHT22;18221;38.704;0.152;2023-06-04T00:19:42;18.70;99.90
10175;DHT22;18221;38.704;0.152;2023-06-04T00:22:10;18.70;99.90
10175;DHT22;18221;38.704;0.152;2023-06-04T00:24:38;18.70;99.90
10175;DHT22;18221;38.704;0.152;2023-06-04T00:27:07;18.50;99.90
10175;DHT22;18221;38.704;0.152;2023-06-04T00:29:37;18.70;99.90
10175;DHT22;18221;38.704;0.152;2023-06-04T00:32:06;18.70;99.90
10175;DHT22;18221;38.704;0.152;2023-06-04T00:34:35;18.60;99.90
10175;DHT22;18221;38.704;0.152;2023-06-04T00:37:03;18.60;99.90
10175;DHT22;18221;38.704;0.152;2023-06-04T00:39:31;18.60;99.90
10175;DHT22;18221;38.704;0.152;2023-06-04T00:42:00;18.60;99.90
10175;DHT22;18221;38.704;0.152;2023-06-04T00:44:28;18.60;99.90
10175;DHT22;18221;38.704;0.152;2023-06-04T00:46:58;18.60;99.90
10175;DHT22;18221;38.704;0.152;2023-06-04T00:49:26;18.60;99.90
10175;DHT22;18221;38.704;0.152;2023-06-04T00:51:54;18.60;99.90
10175;DHT22;18221;38.704;0.152;2023-06-04T00:54:22;18.50;99.90
10175;DHT22;18221;38.704;0.152;2023-06-04T00:56:52;18.60;99.90
10175;DHT22;18221;38.704;0.152;2023-06-04T00:59:21;18.50;99.90
10175;DHT22;18221;38.704;0.152;2023-06-04T01:01:53;18.50;99.90
10175;DHT22;18221;38.704;0.152;2023-06-04T01:04:29;18.50;99.90
10175;DHT22;18221;38.704;0.152;2023-06-04T01:07:03;18.50;99.90
10175;DHT22;18221;38.704;0.152;2023-06-04T01:09:34;18.40;99.90
10175;DHT22;18221;38.704;0.152;2023-06-04T01:12:04;18.50;99.90
10175;DHT22;18221;38.704;0.152;2023-06-04T01:14:33;18.50;99.90
10175;DHT22;18221;38.704;0.152;2023-06-04T01:17:05;18.50;99.90
10175;DHT22;18221;38.704;0.152;2023-06-04T01:23:14;18.50;99.90
10175;DHT22;18221;38.704;0.152;2023-06-04T01:25:55;18.50;99.90
10175;DHT22;18221;38.704;0.152;2023-06-04T01:28:23;18.50;99.90
10175;DHT22;18221;38.704;0.152;2023-06-04T01:30:54;18.50;99.90
10175;DHT22;18221;38.704;0.152;2023-06-04T01:33:23;18.50;99.90
10175;DHT22;18221;38.704;0.152;2023-06-04T01:35:52;18.40;99.90
10175;DHT22;18221;38.704;0.152;2023-06-04T01:38:20;18.40;99.90
10175;DHT22;18221;38.704;0.152;2023-06-04T01:40:49;18.40;99.90
10175;DHT22;18221;38.704;0.152;2023-06-04T01:43:22;18.40;99.90
10175;DHT22;18221;38.704;0.152;2023-06-04T01:45:50;18.40;99.90
10175;DHT22;18221;38.704;0.152;2023-06-04T01:48:22;18.40;99.90
10175;DHT22;18221;38.704;0.152;2023-06-04T01:50:52;18.40;99.90
10175;DHT22;18221;38.704;0.152;2023-06-04T01:53:20;18.40;99.90
10175;DHT22;18221;38.704;0.152;2023-06-04T01:55:48;18.40;99.90
10175;DHT22;18221;38.704;0.152;2023-06-04T01:58:17;18.40;99.90
10175;DHT22;18221;38.704;0.152;2023-06-04T02:00:48;18.40;99.90
10175;DHT22;18221;38.704;0.152;2023-06-04T02:03:19;18.40;99.90
10175;DHT22;18221;38.704;0.152;2023-06-04T02:05:47;18.40;99.90
10175;DHT22;18221;38.704;0.152;2023-06-04T02:08:17;18.40;99.90
10175;DHT22;18221;38.704;0.152;2023-06-04T02:10:46;18.40;99.90
10175;DHT22;18221;38.704;0.152;2023-06-04T02:13:17;18.40;99.90
10175;DHT22;18221;38.704;0.152;2023-06-04T02:15:45;18.40;99.90
10175;DHT22;18221;38.704;0.152;2023-06-04T02:18:14;18.40;99.90
10175;DHT22;18221;38.704;0.152;2023-06-04T02:20:43;18.40;99.90
10175;DHT22;18221;38.704;0.152;2023-06-04T02:23:13;18.40;99.90
10175;DHT22;18221;38.704;0.152;2023-06-04T02:25:45;18.40;99.90
10175;DHT22;18221;38.704;0.152;2023-06-04T02:28:13;18.40;99.90
10175;DHT22;18221;38.704;0.152;2023-06-04T02:30:42;18.30;99.90
10175;DHT22;18221;38.704;0.152;2023-06-04T02:33:10;18.30;99.90
10175;DHT22;18221;38.704;0.152;2023-06-04T02:35:39;18.40;99.90
10175;DHT22;18221;38.704;0.152;2023-06-04T02:38:07;18.30;99.90
10175;DHT22;18221;38.704;0.152;2023-06-04T02:40:35;18.30;99.90
10175;DHT22;18221;38.704;0.152;2023-06-04T02:43:04;18.30;99.90
10175;DHT22;18221;38.704;0.152;2023-06-04T02:45:33;18.30;99.90
10175;DHT22;18221;38.704;0.152;2023-06-04T02:48:00;18.30;99.90
10175;DHT22;18221;38.704;0.152;2023-06-04T02:50:28;18.30;99.90
10175;DHT22;18221;38.704;0.152;2023-06-04T02:52:56;18.30;99.90
10175;DHT22;18221;38.704;0.152;2023-06-04T02:55:24;18.30;99.90
10175;DHT22;18221;38.704;0.152;2023-06-04T02:57:52;18.30;99.90
10175;DHT22;18221;38.704;0.152;2023-06-04T03:00:22;18.30;99.90
10175;DHT22;18221;38.704;0.152;2023-06-04T03:02:51;18.30;99.90
10175;DHT22;18221;38.704;0.152;2023-06-04T03:05:27;18.20;99.90
10175;DHT22;18221;38.704;0.152;2023-06-04T03:07:56;17.80;99.90
10175;DHT22;18221;38.704;0.152;2023-06-04T03:10:25;18.30;99.90
10175;DHT22;18221;38.704;0.152;2023-06-04T03:12:53;18.20;99.90
10175;DHT22;18221;38.704;0.152;2023-06-04T03:15:22;18.20;99.90
10175;DHT22;18221;38.704;0.152;2023-06-04T03:17:51;18.20;99.90
10175;DHT22;18221;38.704;0.152;2023-06-04T03:20:19;18.20;99.90
10175;DHT22;18221;38.704;0.152;2023-06-04T03:22:50;18.30;99.90
10175;DHT22;18221;38.704;0.152;2023-06-04T03:25:18;18.30;99.90
10175;DHT22;18221;38.704;0.152;2023-06-04T03:27:46;18.20;99.90
10175;DHT22;18221;38.704;0.152;2023-06-04T03:30:15;18.20;99.90
10175;DHT22;18221;38.704;0.152;2023-06-04T03:32:44;18.20;99.90
10175;DHT22;18221;38.704;0.152;2023-06-04T03:35:13;18.20;99.90
10175;DHT22;18221;38.704;0.152;2023-06-04T03:37:41;18.20;99.90
10175;DHT22;18221;38.704;0.152;2023-06-04T03:40:10;18.20;99.90
10175;DHT22;18221;38.704;0.152;2023-06-04T03:42:39;18.20;99.90
10175;DHT22;18221;38.704;0.152;2023-06-04T03:45:08;18.20;99.90
10175;DHT22;18221;38.704;0.152;2023-06-04T03:47:38;18.20;99.90
10175;DHT22;18221;38.704;0.152;2023-06-04T03:50:09;18.10;99.90
10175;DHT22;18221;38.704;0.152;2023-06-04T03:52:37;18.20;99.90
10175;DHT22;18221;38.704;0.152;2023-06-04T03:55:06;18.20;99.90
10175;DHT22;18221;38.704;0.152;2023-06-04T03:57:36;18.10;99.90
10175;DHT22;18221;38.704;0.152;2023-06-04T04:00:06;18.10;99.90
10175;DHT22;18221;38.704;0.152;2023-06-04T04:02:38;18.10;99.90
10175;DHT22;18221;38.704;0.152;2023-06-04T04:05:08;18.10;99.90
10175;DHT22;18221;38.704;0.152;2023-06-04T04:07:37;18.10;99.90
10175;DHT22;18221;38.704;0.152;2023-06-04T04:10:06;18.10;99.90
10175;DHT22;18221;38.704;0.152;2023-06-04T04:12:35;18.10;99.90
10175;DHT22;18221;38.704;0.152;2023-06-04T04:15:04;18.00;99.90
10175;DHT22;18221;38.704;0.152;2023-06-04T04:17:33;18.00;99.90
10175;DHT22;18221;38.704;0.152;2023-06-04T04:20:01;18.00;99.90
10175;DHT22;18221;38.704;0.152;2023-06-04T04:22:32;18.00;99.90
10175;DHT22;18221;38.704;0.152;2023-06-04T04:25:00;18.00;99.90
10175;DHT22;18221;38.704;0.152;2023-06-04T04:27:29;18.00;99.90
10175;DHT22;18221;38.704;0.152;2023-06-04T04:29:57;18.00;99.90
10175;DHT22;18221;38.704;0.152;2023-06-04T04:32:26;18.00;99.90
10175;DHT22;18221;38.704;0.152;2023-06-04T04:34:54;18.00;99.90
10175;DHT22;18221;38.704;0.152;2023-06-04T04:37:23;17.90;99.90
10175;DHT22;18221;38.704;0.152;2023-06-04T04:39:53;17.90;99.90
10175;DHT22;18221;38.704;0.152;2023-06-04T04:42:21;17.90;99.90
10175;DHT22;18221;38.704;0.152;2023-06-04T04:44:49;17.90;99.90
10175;DHT22;18221;38.704;0.152;2023-06-04T04:47:17;17.90;99.90
10175;DHT22;18221;38.704;0.152;2023-06-04T04:49:45;17.90;99.90
10175;DHT22;18221;38.704;0.152;2023-06-04T04:52:15;17.90;99.90
10175;DHT22;18221;38.704;0.152;2023-06-04T04:54:43;17.90;99.90
10175;DHT22;18221;38.704;0.152;2023-06-04T04:57:12;17.90;99.90
10175;DHT22;18221;38.704;0.152;2023-06-04T04:59:40;17.80;99.90
10175;DHT22;18221;38.704;0.152;2023-06-04T05:02:08;17.90;99.90
10175;DHT22;18221;38.704;0.152;2023-06-04T05:04:36;17.90;99.90
10175;DHT22;18221;38.704;0.152;2023-06-04T05:07:04;17.90;99.90
10175;DHT22;18221;38.704;0.152;2023-06-04T05:09:32;17.90;99.90
10175;DHT22;18221;38.704;0.152;2023-06-04T05:12:00;18.00;99.90
10175;DHT22;18221;38.704;0.152;2023-06-04T05:14:30;18.00;99.90
10175;DHT22;18221;38.704;0.152;2023-06-04T05:16:58;16.70;99.90
10175;DHT22;18221;38.704;0.152;2023-06-04T05:19:26;18.00;99.90
10175;DHT22;18221;38.704;0.152;2023-06-04T05:21:54;18.00;99.90
10175;DHT22;18221;38.704;0.152;2023-06-04T05:24:22;18.00;99.90
10175;DHT22;18221;38.704;0.152;2023-06-04T05:26:50;18.00;99.90
10175;DHT22;18221;38.704;0.152;2023-06-04T05:29:18;18.00;99.90
10175;DHT22;18221;38.704;0.152;2023-06-04T05:31:48;18.00;99.90
10175;DHT22;18221;38.704;0.152;2023-06-04T05:34:16;18.00;99.90
10175;DHT22;18221;38.704;0.152;2023-06-04T05:36:44;18.00;99.90
10175;DHT22;18221;38.704;0.152;2023-06-04T05:39:12;18.00;99.90
10175;DHT22;18221;38.704;0.152;2023-06-04T05:41:40;18.30;99.90
10175;DHT22;18221;38.704;0.152;2023-06-04T05:44:09;18.00;99.90
10175;DHT22;18221;38.704;0.152;2023-06-04T05:46:37;18.00;99.90
10175;DHT22;18221;38.704;0.152;2023-06-04T05:49:06;18.10;99.90
10175;DHT22;18221;38.704;0.152;2023-06-04T05:51:34;18.00;99.90
10175;DHT22;18221;38.704;0.152;2023-06-04T05:54:02;18.10;99.90
10175;DHT22;18221;38.704;0.152;2023-06-04T05:56:30;18.10;99.90
10175;DHT22;18221;38.704;0.152;2023-06-04T05:58:58;18.10;99.90
10175;DHT22;18221;38.704;0.152;2023-06-04T06:01:26;18.10;99.90
10175;DHT22;18221;38.704;0.152;2023-06-04T06:03:54;18.10;99.90
10175;DHT22;18221;38.704;0.152;2023-06-04T06:06:24;18.20;99.90
10175;DHT22;18221;38.704;0.152;2023-06-04T06:08:52;18.20;99.90
10175;DHT22;18221;38.704;0.152;2023-06-04T06:11:20;18.20;99.90
10175;DHT22;18221;38.704;0.152;2023-06-04T06:13:48;18.30;99.90
10175;DHT22;18221;38.704;0.152;2023-06-04T06:16:16;18.40;99.90
10175;DHT22;18221;38.704;0.152;2023-06-04T06:18:44;18.40;99.90
10175;DHT22;18221;38.704;0.152;2023-06-04T06:21:12;18.40;99.90
10175;DHT22;18221;38.704;0.152;2023-06-04T06:23:42;18.40;99.90
10175;DHT22;18221;38.704;0.152;2023-06-04T06:26:09;18.50;99.90
10175;DHT22;18221;38.704;0.152;2023-06-04T06:28:38;18.60;99.90
10175;DHT22;18221;38.704;0.152;2023-06-04T06:31:05;18.50;99.90
10175;DHT22;18221;38.704;0.152;2023-06-04T06:33:33;18.60;99.90
10175;DHT22;18221;38.704;0.152;2023-06-04T06:36:06;18.60;99.90
10175;DHT22;18221;38.704;0.152;2023-06-04T06:38:35;18.70;99.90
10175;DHT22;18221;38.704;0.152;2023-06-04T06:41:04;18.70;99.90
10175;DHT22;18221;38.704;0.152;2023-06-04T06:43:32;18.70;99.90
10175;DHT22;18221;38.704;0.152;2023-06-04T06:46:00;18.70;99.90
10175;DHT22;18221;38.704;0.152;2023-06-04T06:48:28;20.00;99.90
10175;DHT22;18221;38.704;0.152;2023-06-04T06:50:56;18.70;99.90
10175;DHT22;18221;38.704;0.152;2023-06-04T06:53:24;18.70;99.90
10175;DHT22;18221;38.704;0.152;2023-06-04T06:55:52;18.80;99.90
10175;DHT22;18221;38.704;0.152;2023-06-04T06:58:21;18.80;99.90
10175;DHT22;18221;38.704;0.152;2023-06-04T07:00:50;18.90;99.90
10175;DHT22;18221;38.704;0.152;2023-06-04T07:03:20;18.90;99.90
10175;DHT22;18221;38.704;0.152;2023-06-04T07:05:48;18.90;99.90
10175;DHT22;18221;38.704;0.152;2023-06-04T07:08:16;18.90;99.90
10175;DHT22;18221;38.704;0.152;2023-06-04T07:10:43;19.00;99.90
10175;DHT22;18221;38.704;0.152;2023-06-04T07:13:11;19.00;99.90
10175;DHT22;18221;38.704;0.152;2023-06-04T07:15:40;19.10;99.90
10175;DHT22;18221;38.704;0.152;2023-06-04T07:18:08;19.10;99.90
10175;DHT22;18221;38.704;0.152;2023-06-04T07:20:36;19.20;99.90
10175;DHT22;18221;38.704;0.152;2023-06-04T07:23:04;19.20;99.90
10175;DHT22;18221;38.704;0.152;2023-06-04T07:25:32;19.30;99.90
10175;DHT22;18221;38.704;0.152;2023-06-04T07:28:00;19.40;99.90
10175;DHT22;18221;38.704;0.152;2023-06-04T07:30:30;19.40;99.90
10175;DHT22;18221;38.704;0.152;2023-06-04T07:33:00;19.50;99.90
10175;DHT22;18221;38.704;0.152;2023-06-04T07:35:28;19.60;99.90
10175;DHT22;18221;38.704;0.152;2023-06-04T07:37:56;19.60;99.90
10175;DHT22;18221;38.704;0.152;2023-06-04T07:40:24;19.70;99.90
10175;DHT22;18221;38.704;0.152;2023-06-04T07:42:52;19.70;99.90
10175;DHT22;18221;38.704;0.152;2023-06-04T07:45:20;19.80;99.90
10175;DHT22;18221;38.704;0.152;2023-06-04T07:47:51;19.90;99.90
10175;DHT22;18221;38.704;0.152;2023-06-04T07:50:20;20.00;99.90
10175;DHT22;18221;38.704;0.152;2023-06-04T07:52:48;20.10;99.90
10175;DHT22;18221;38.704;0.152;2023-06-04T07:55:16;20.30;99.90
10175;DHT22;18221;38.704;0.152;2023-06-04T07:57:44;20.40;99.90
10175;DHT22;18221;38.704;0.152;2023-06-04T08:00:13;20.60;99.90
10175;DHT22;18221;38.704;0.152;2023-06-04T08:02:43;20.80;99.90
10175;DHT22;18221;38.704;0.152;2023-06-04T08:05:11;21.00;99.90
10175;DHT22;18221;38.704;0.152;2023-06-04T08:07:41;21.30;99.90
10175;DHT22;18221;38.704;0.152;2023-06-04T08:10:10;21.60;99.90
10175;DHT22;18221;38.704;0.152;2023-06-04T08:12:38;21.70;99.90
10175;DHT22;18221;38.704;0.152;2023-06-04T08:15:10;21.60;99.90
10175;DHT22;18221;38.704;0.152;2023-06-04T08:17:38;21.50;99.90
10175;DHT22;18221;38.704;0.152;2023-06-04T08:20:06;21.50;99.90
10175;DHT22;18221;38.704;0.152;2023-06-04T08:22:36;21.80;99.90
10175;DHT22;18221;38.704;0.152;2023-06-04T08:25:06;21.80;99.90
10175;DHT22;18221;38.704;0.152;2023-06-04T08:27:34;21.80;99.90
10175;DHT22;18221;38.704;0.152;2023-06-04T08:30:04;22.00;99.90
10175;DHT22;18221;38.704;0.152;2023-06-04T08:32:33;22.30;99.90
10175;DHT22;18221;38.704;0.152;2023-06-04T08:35:01;22.60;99.90
10175;DHT22;18221;38.704;0.152;2023-06-04T08:37:29;23.00;99.90
10175;DHT22;18221;38.704;0.152;2023-06-04T08:39:56;23.30;99.90
10175;DHT22;18221;38.704;0.152;2023-06-04T08:42:30;23.70;99.90
10175;DHT22;18221;38.704;0.152;2023-06-04T08:45:00;24.00;99.90
10175;DHT22;18221;38.704;0.152;2023-06-04T08:47:32;24.40;99.90
10175;DHT22;18221;38.704;0.152;2023-06-04T08:50:05;24.50;99.90
10175;DHT22;18221;38.704;0.152;2023-06-04T08:52:37;24.60;99.90
10175;DHT22;18221;38.704;0.152;2023-06-04T08:55:08;24.60;99.90
10175;DHT22;18221;38.704;0.152;2023-06-04T08:57:41;24.60;99.90
10175;DHT22;18221;38.704;0.152;2023-06-04T09:00:09;24.50;99.90
10175;DHT22;18221;38.704;0.152;2023-06-04T09:02:39;24.40;99.90
10175;DHT22;18221;38.704;0.152;2023-06-04T09:05:08;24.30;99.90
10175;DHT22;18221;38.704;0.152;2023-06-04T09:07:39;24.30;99.90
10175;DHT22;18221;38.704;0.152;2023-06-04T09:10:09;24.20;99.90
10175;DHT22;18221;38.704;0.152;2023-06-04T09:12:46;24.00;99.90
10175;DHT22;18221;38.704;0.152;2023-06-04T09:15:16;23.90;99.90
10175;DHT22;18221;38.704;0.152;2023-06-04T09:17:44;23.80;99.90
10175;DHT22;18221;38.704;0.152;2023-06-04T09:20:19;23.60;99.90
10175;DHT22;18221;38.704;0.152;2023-06-04T09:22:48;23.60;99.90
10175;DHT22;18221;38.704;0.152;2023-06-04T09:25:20;23.50;99.90
10175;DHT22;18221;38.704;0.152;2023-06-04T09:27:53;23.30;99.90
10175;DHT22;18221;38.704;0.152;2023-06-04T09:30:23;23.40;99.90
10175;DHT22;18221;38.704;0.152;2023-06-04T09:32:52;23.50;99.90
10175;DHT22;18221;38.704;0.152;2023-06-04T09:35:20;23.60;99.90
10175;DHT22;18221;38.704;0.152;2023-06-04T09:37:55;23.40;99.90
10175;DHT22;18221;38.704;0.152;2023-06-04T09:40:24;23.30;99.90
10175;DHT22;18221;38.704;0.152;2023-06-04T09:43:03;23.20;99.90
10175;DHT22;18221;38.704;0.152;2023-06-04T09:45:35;22.90;99.90
10175;DHT22;18221;38.704;0.152;2023-06-04T09:48:03;22.70;99.90
10175;DHT22;18221;38.704;0.152;2023-06-04T09:50:33;22.40;99.90
10175;DHT22;18221;38.704;0.152;2023-06-04T09:53:13;22.20;99.90
10175;DHT22;18221;38.704;0.152;2023-06-04T09:55:42;21.90;99.90
10175;DHT22;18221;38.704;0.152;2023-06-04T09:58:12;21.80;99.90
10175;DHT22;18221;38.704;0.152;2023-06-04T10:00:41;21.70;99.90
10175;DHT22;18221;38.704;0.152;2023-06-04T10:03:15;21.70;99.90
10175;DHT22;18221;38.704;0.152;2023-06-04T10:05:49;21.70;99.90
10175;DHT22;18221;38.704;0.152;2023-06-04T10:08:22;21.70;99.90
10175;DHT22;18221;38.704;0.152;2023-06-04T10:10:51;21.70;99.90
10175;DHT22;18221;38.704;0.152;2023-06-04T10:13:26;21.80;99.90
10175;DHT22;18221;38.704;0.152;2023-06-04T10:15:57;22.10;99.90
10175;DHT22;18221;38.704;0.152;2023-06-04T10:18:27;22.20;99.90
10175;DHT22;18221;38.704;0.152;2023-06-04T10:20:56;22.30;99.90
10175;DHT22;18221;38.704;0.152;2023-06-04T10:23:25;22.40;99.90
10175;DHT22;18221;38.704;0.152;2023-06-04T10:25:55;22.40;99.90
10175;DHT22;18221;38.704;0.152;2023-06-04T10:28:26;22.50;99.90
10175;DHT22;18221;38.704;0.152;2023-06-04T10:30:54;22.50;99.90
10175;DHT22;18221;38.704;0.152;2023-06-04T10:33:22;22.50;99.90
10175;DHT22;18221;38.704;0.152;2023-06-04T10:35:54;22.50;99.90
10175;DHT22;18221;38.704;0.152;2023-06-04T10:38:22;22.40;99.90
10175;DHT22;18221;38.704;0.152;2023-06-04T10:40:51;22.30;99.90
10175;DHT22;18221;38.704;0.152;2023-06-04T10:43:20;22.30;99.90
10175;DHT22;18221;38.704;0.152;2023-06-04T10:45:50;22.50;99.90
10175;DHT22;18221;38.704;0.152;2023-06-04T10:48:18;22.60;99.90
10175;DHT22;18221;38.704;0.152;2023-06-04T10:50:49;22.70;99.90
10175;DHT22;18221;38.704;0.152;2023-06-04T10:53:19;22.50;99.90
10175;DHT22;18221;38.704;0.152;2023-06-04T10:55:49;22.50;99.90
10175;DHT22;18221;38.704;0.152;2023-06-04T10:58:17;22.70;99.90
10175;DHT22;18221;38.704;0.152;2023-06-04T11:00:47;22.70;99.90
10175;DHT22;18221;38.704;0.152;2023-06-04T11:03:19;22.80;99.90
10175;DHT22;18221;38.704;0.152;2023-06-04T11:05:47;22.80;99.90
10175;DHT22;18221;38.704;0.152;2023-06-04T11:08:26;22.70;99.90
10175;DHT22;18221;38.704;0.152;2023-06-04T11:10:55;22.80;99.90
10175;DHT22;18221;38.704;0.152;2023-06-04T11:13:24;22.90;99.90
10175;DHT22;18221;38.704;0.152;2023-06-04T11:15:52;23.00;99.90
10175;DHT22;18221;38.704;0.152;2023-06-04T11:18:22;23.10;99.90
10175;DHT22;18221;38.704;0.152;2023-06-04T11:21:00;23.10;99.90
10175;DHT22;18221;38.704;0.152;2023-06-04T11:23:33;23.30;99.90
10175;DHT22;18221;38.704;0.152;2023-06-04T11:26:01;23.30;99.90
10175;DHT22;18221;38.704;0.152;2023-06-04T11:28:29;23.30;99.90
10175;DHT22;18221;38.704;0.152;2023-06-04T11:30:58;23.20;99.90
10175;DHT22;18221;38.704;0.152;2023-06-04T11:33:30;23.20;99.90
10175;DHT22;18221;38.704;0.152;2023-06-04T11:36:08;23.10;99.90
10175;DHT22;18221;38.704;0.152;2023-06-04T11:38:36;23.20;99.90
10175;DHT22;18221;38.704;0.152;2023-06-04T11:41:04;23.30;99.90
10175;DHT22;18221;38.704;0.152;2023-06-04T11:43:33;23.30;99.90
10175;DHT22;18221;38.704;0.152;2023-06-04T11:46:08;23.40;99.90
10175;DHT22;18221;38.704;0.152;2023-06-04T11:48:37;23.50;99.90
10175;DHT22;18221;38.704;0.152;2023-06-04T11:51:07;23.50;99.90
10175;DHT22;18221;38.704;0.152;2023-06-04T11:53:37;23.60;99.90
10175;DHT22;18221;38.704;0.152;2023-06-04T11:56:06;23.80;99.90
10175;DHT22;18221;38.704;0.152;2023-06-04T11:58:34;23.70;99.90
10175;DHT22;18221;38.704;0.152;2023-06-04T12:01:03;23.90;99.90
10175;DHT22;18221;38.704;0.152;2023-06-04T12:03:35;24.00;99.90
10175;DHT22;18221;38.704;0.152;2023-06-04T12:06:15;24.00;99.90
10175;DHT22;18221;38.704;0.152;2023-06-04T12:08:48;23.90;99.90
10175;DHT22;18221;38.704;0.152;2023-06-04T12:11:27;24.10;99.90
10175;DHT22;18221;38.704;0.152;2023-06-04T12:13:58;24.10;99.90
10175;DHT22;18221;38.704;0.152;2023-06-04T12:16:27;24.00;99.90
10175;DHT22;18221;38.704;0.152;2023-06-04T12:19:07;24.00;99.90
10175;DHT22;18221;38.704;0.152;2023-06-04T12:21:35;24.10;99.90
10175;DHT22;18221;38.704;0.152;2023-06-04T12:24:09;24.20;99.90
10175;DHT22;18221;38.704;0.152;2023-06-04T12:26:38;24.10;99.90
10175;DHT22;18221;38.704;0.152;2023-06-04T12:29:09;24.00;99.90
10175;DHT22;18221;38.704;0.152;2023-06-04T12:31:38;24.10;99.90
10175;DHT22;18221;38.704;0.152;2023-06-04T12:34:09;24.10;99.90
10175;DHT22;18221;38.704;0.152;2023-06-04T12:36:38;24.10;99.90
10175;DHT22;18221;38.704;0.152;2023-06-04T12:39:06;24.10;99.90
10175;DHT22;18221;38.704;0.152;2023-06-04T12:41:35;24.10;99.90
10175;DHT22;18221;38.704;0.152;2023-06-04T12:44:03;24.00;99.90
10175;DHT22;18221;38.704;0.152;2023-06-04T12:46:31;24.10;99.90
10175;DHT22;18221;38.704;0.152;2023-06-04T12:48:59;24.00;99.90
10175;DHT22;18221;38.704;0.152;2023-06-04T12:51:28;23.90;99.90
10175;DHT22;18221;38.704;0.152;2023-06-04T12:53:57;23.80;99.90
10175;DHT22;18221;38.704;0.152;2023-06-04T12:56:26;24.00;99.90
10175;DHT22;18221;38.704;0.152;2023-06-04T12:58:54;24.00;99.90
10175;DHT22;18221;38.704;0.152;2023-06-04T13:01:22;24.10;99.90
10175;DHT22;18221;38.704;0.152;2023-06-04T13:03:50;24.20;99.90
10175;DHT22;18221;38.704;0.152;2023-06-04T13:06:18;24.20;99.90
10175;DHT22;18221;38.704;0.152;2023-06-04T13:08:48;24.20;99.90
10175;DHT22;18221;38.704;0.152;2023-06-04T13:11:16;24.30;99.90
10175;DHT22;18221;38.704;0.152;2023-06-04T13:13:44;24.30;99.90
10175;DHT22;18221;38.704;0.152;2023-06-04T13:16:12;24.30;99.90
10175;DHT22;18221;38.704;0.152;2023-06-04T13:18:40;24.30;99.90
10175;DHT22;18221;38.704;0.152;2023-06-04T13:21:08;24.40;99.90
10175;DHT22;18221;38.704;0.152;2023-06-04T13:23:35;24.40;99.90
10175;DHT22;18221;38.704;0.152;2023-06-04T13:26:05;24.50;99.90
10175;DHT22;18221;38.704;0.152;2023-06-04T13:28:33;24.40;99.90
10175;DHT22;18221;38.704;0.152;2023-06-04T13:31:01;24.30;99.90
10175;DHT22;18221;38.704;0.152;2023-06-04T13:33:29;24.30;99.90
10175;DHT22;18221;38.704;0.152;2023-06-04T13:35:57;24.30;99.90
10175;DHT22;18221;38.704;0.152;2023-06-04T13:38:25;24.30;99.90
10175;DHT22;18221;38.704;0.152;2023-06-04T13:40:53;24.30;99.90
10175;DHT22;18221;38.704;0.152;2023-06-04T13:43:23;24.40;99.90
10175;DHT22;18221;38.704;0.152;2023-06-04T13:45:51;24.50;99.90
10175;DHT22;18221;38.704;0.152;2023-06-04T13:48:19;24.50;99.90
10175;DHT22;18221;38.704;0.152;2023-06-04T13:50:48;24.50;99.90
10175;DHT22;18221;38.704;0.152;2023-06-04T13:53:16;24.60;99.90
10175;DHT22;18221;38.704;0.152;2023-06-04T13:55:44;24.50;99.90
10175;DHT22;18221;38.704;0.152;2023-06-04T13:58:12;24.50;99.90
10175;DHT22;18221;38.704;0.152;2023-06-04T14:00:42;24.50;99.90
10175;DHT22;18221;38.704;0.152;2023-06-04T14:03:10;24.50;99.90
10175;DHT22;18221;38.704;0.152;2023-06-04T14:05:38;24.40;99.90
10175;DHT22;18221;38.704;0.152;2023-06-04T14:08:06;24.40;99.90
10175;DHT22;18221;38.704;0.152;2023-06-04T14:10:34;24.50;99.90
10175;DHT22;18221;38.704;0.152;2023-06-04T14:13:06;24.60;99.90
10175;DHT22;18221;38.704;0.152;2023-06-04T14:15:34;24.70;99.90
10175;DHT22;18221;38.704;0.152;2023-06-04T14:18:04;24.70;99.90
10175;DHT22;18221;38.704;0.152;2023-06-04T14:20:33;24.60;99.90
10175;DHT22;18221;38.704;0.152;2023-06-04T14:23:02;24.50;99.90
10175;DHT22;18221;38.704;0.152;2023-06-04T14:25:30;24.50;99.90
10175;DHT22;18221;38.704;0.152;2023-06-04T14:28:01;24.50;99.90
10175;DHT22;18221;38.704;0.152;2023-06-04T14:30:31;24.50;99.90
10175;DHT22;18221;38.704;0.152;2023-06-04T14:32:59;24.50;99.90
10175;DHT22;18221;38.704;0.152;2023-06-04T14:35:29;24.40;99.90
10175;DHT22;18221;38.704;0.152;2023-06-04T14:37:56;24.20;99.90
10175;DHT22;18221;38.704;0.152;2023-06-04T14:40:24;24.10;99.90
10175;DHT22;18221;38.704;0.152;2023-06-04T14:42:52;24.20;99.90
10175;DHT22;18221;38.704;0.152;2023-06-04T14:45:20;24.10;99.90
10175;DHT22;18221;38.704;0.152;2023-06-04T14:47:51;24.10;99.90
10175;DHT22;18221;38.704;0.152;2023-06-04T14:50:19;24.10;99.90
10175;DHT22;18221;38.704;0.152;2023-06-04T14:52:49;24.00;99.90
10175;DHT22;18221;38.704;0.152;2023-06-04T14:55:17;24.10;99.90
10175;DHT22;18221;38.704;0.152;2023-06-04T14:57:45;23.90;99.90
10175;DHT22;18221;38.704;0.152;2023-06-04T15:00:13;23.90;99.90
10175;DHT22;18221;38.704;0.152;2023-06-04T15:02:42;23.80;99.90
10175;DHT22;18221;38.704;0.152;2023-06-04T15:05:10;23.70;99.90
10175;DHT22;18221;38.704;0.152;2023-06-04T15:07:38;23.50;99.90
10175;DHT22;18221;38.704;0.152;2023-06-04T15:10:08;23.20;99.90
10175;DHT22;18221;38.704;0.152;2023-06-04T15:12:37;23.10;99.90
10175;DHT22;18221;38.704;0.152;2023-06-04T15:15:06;23.00;99.90
10175;DHT22;18221;38.704;0.152;2023-06-04T15:17:35;22.90;99.90
10175;DHT22;18221;38.704;0.152;2023-06-04T15:20:03;22.80;99.90
10175;DHT22;18221;38.704;0.152;2023-06-04T15:22:33;22.70;99.90
10175;DHT22;18221;38.704;0.152;2023-06-04T15:25:01;22.60;99.90
10175;DHT22;18221;38.704;0.152;2023-06-04T15:27:32;22.60;99.90
10175;DHT22;18221;38.704;0.152;2023-06-04T15:30:00;22.50;99.90
10175;DHT22;18221;38.704;0.152;2023-06-04T15:32:29;22.40;99.90
10175;DHT22;18221;38.704;0.152;2023-06-04T15:34:57;22.40;99.90
10175;DHT22;18221;38.704;0.152;2023-06-04T15:37:25;22.40;99.90
10175;DHT22;18221;38.704;0.152;2023-06-04T15:39:53;22.50;99.90
10175;DHT22;18221;38.704;0.152;2023-06-04T15:42:23;22.50;99.90
10175;DHT22;18221;38.704;0.152;2023-06-04T15:44:53;22.40;99.90
10175;DHT22;18221;38.704;0.152;2023-06-04T15:47:21;22.30;99.90
10175;DHT22;18221;38.704;0.152;2023-06-04T15:49:49;22.40;99.90
10175;DHT22;18221;38.704;0.152;2023-06-04T15:52:17;22.40;99.90
10175;DHT22;18221;38.704;0.152;2023-06-04T15:54:46;22.40;99.90
10175;DHT22;18221;38.704;0.152;2023-06-04T15:57:14;22.40;99.90